Terminal Aerodrome Forecast
Issued by NWS Wilmington, OH

Current Version | Previous Version | Graphics & Text | Print | Product List | Glossary On
Versions: 1 2 3 4 5 6 7 8 9 10 11 12 13 14 15 16 17 18 19 20 21 22 23 24
000
FTUS41 KILN 312300
TAFILN
TAF
KILN 312339Z 0100/0124 35012KT P6SM OVC012
      TEMPO 0100/0102 6SM -DZ BR OVC008
     FM010200 01008KT 4SM BR OVC008
     FM011000 01008KT 4SM BR OVC004
     FM011400 02010KT P6SM VCSH OVC015
     FM012000 03010KT P6SM OVC025=

USA.gov is the U.S. government's official web portal to all federal, state and local government web resources and services.